sensor_id;sensor_type;location;lat;lon;timestamp;pressure;altitude;pressure_sealevel;temperature;humidity
69909;BME280;57190;47.918;8.112;2023-02-17T00:01:58;91714.41;;;6.79;53.04
69909;BME280;57190;47.918;8.112;2023-02-17T00:04:24;91714.56;;;6.84;51.83
69909;BME280;57190;47.918;8.112;2023-02-17T00:06:51;91722.91;;;6.88;52.93
69909;BME280;57190;47.918;8.112;2023-02-17T00:09:17;91726.34;;;6.88;53.39
69909;BME280;57190;47.918;8.112;2023-02-17T00:11:42;91713.75;;;6.84;53.26
69909;BME280;57190;47.918;8.112;2023-02-17T00:14:11;91719.06;;;6.84;52.47
69909;BME280;57190;47.918;8.112;2023-02-17T00:16:37;91720.69;;;6.85;52.89
69909;BME280;57190;47.918;8.112;2023-02-17T00:19:02;91709.13;;;6.79;53.69
69909;BME280;57190;47.918;8.112;2023-02-17T00:21:55;91721.47;;;6.85;53.83
69909;BME280;57190;47.918;8.112;2023-02-17T00:24:22;91717.81;;;6.86;53.77
69909;BME280;57190;47.918;8.112;2023-02-17T00:26:48;91722.75;;;6.83;55.64
69909;BME280;57190;47.918;8.112;2023-02-17T00:29:15;91720.91;;;6.83;54.93
69909;BME280;57190;47.918;8.112;2023-02-17T00:31:43;91723.78;;;6.82;56.02
69909;BME280;57190;47.918;8.112;2023-02-17T00:34:08;91722.25;;;6.74;56.52
69909;BME280;57190;47.918;8.112;2023-02-17T00:36:34;91726.97;;;6.72;56.97
69909;BME280;57190;47.918;8.112;2023-02-17T00:39:00;91725.88;;;6.61;58.17
69909;BME280;57190;47.918;8.112;2023-02-17T00:41:27;91727.78;;;6.54;58.87
69909;BME280;57190;47.918;8.112;2023-02-17T00:43:53;91725.78;;;6.49;59.48
69909;BME280;57190;47.918;8.112;2023-02-17T00:46:19;91723.56;;;6.46;59.69
69909;BME280;57190;47.918;8.112;2023-02-17T00:48:45;91723.56;;;6.46;60.18
69909;BME280;57190;47.918;8.112;2023-02-17T00:51:11;91722.53;;;6.47;60.84
69909;BME280;57190;47.918;8.112;2023-02-17T00:53:37;91722.19;;;6.43;60.17
69909;BME280;57190;47.918;8.112;2023-02-17T00:56:03;91713.19;;;6.44;60.75
69909;BME280;57190;47.918;8.112;2023-02-17T00:58:29;91715.91;;;6.38;61.61
69909;BME280;57190;47.918;8.112;2023-02-17T01:00:55;91725.72;;;6.37;61.98
69909;BME280;57190;47.918;8.112;2023-02-17T01:03:21;91711.03;;;6.35;62.40
69909;BME280;57190;47.918;8.112;2023-02-17T01:05:48;91718.19;;;6.34;61.38
69909;BME280;57190;47.918;8.112;2023-02-17T01:08:15;91719.53;;;6.43;61.22
69909;BME280;57190;47.918;8.112;2023-02-17T01:10:43;91715.25;;;6.42;61.60
69909;BME280;57190;47.918;8.112;2023-02-17T01:13:10;91722.47;;;6.35;61.32
69909;BME280;57190;47.918;8.112;2023-02-17T01:15:38;91717.81;;;6.31;62.11
69909;BME280;57190;47.918;8.112;2023-02-17T01:18:04;91714.44;;;6.23;63.03
69909;BME280;57190;47.918;8.112;2023-02-17T01:20:33;91729.75;;;6.21;62.60
69909;BME280;57190;47.918;8.112;2023-02-17T01:23:00;91718.34;;;6.21;62.78
69909;BME280;57190;47.918;8.112;2023-02-17T01:25:25;91715.91;;;6.19;63.27
69909;BME280;57190;47.918;8.112;2023-02-17T01:27:51;91718.78;;;6.18;62.71
69909;BME280;57190;47.918;8.112;2023-02-17T01:30:16;91721.19;;;6.19;63.45
69909;BME280;57190;47.918;8.112;2023-02-17T01:32:42;91712.44;;;6.19;63.74
69909;BME280;57190;47.918;8.112;2023-02-17T01:35:07;91717.09;;;6.23;63.14
69909;BME280;57190;47.918;8.112;2023-02-17T01:37:33;91711.19;;;6.21;62.50
69909;BME280;57190;47.918;8.112;2023-02-17T01:39:59;91703.00;;;6.23;63.27
69909;BME280;57190;47.918;8.112;2023-02-17T01:42:24;91703.00;;;6.23;63.06
69909;BME280;57190;47.918;8.112;2023-02-17T01:50:13;91688.16;;;6.22;62.55
69909;BME280;57190;47.918;8.112;2023-02-17T01:52:40;91695.91;;;6.23;63.17
69909;BME280;57190;47.918;8.112;2023-02-17T01:55:09;91687.72;;;6.25;63.34
69909;BME280;57190;47.918;8.112;2023-02-17T01:57:39;91678.19;;;6.17;63.83
69909;BME280;57190;47.918;8.112;2023-02-17T02:00:07;91685.66;;;6.27;63.22
69909;BME280;57190;47.918;8.112;2023-02-17T02:02:35;91685.50;;;6.40;63.74
69909;BME280;57190;47.918;8.112;2023-02-17T02:05:00;91691.03;;;6.39;63.81
69909;BME280;57190;47.918;8.112;2023-02-17T02:07:33;91686.16;;;6.36;64.13
69909;BME280;57190;47.918;8.112;2023-02-17T02:09:59;91686.41;;;6.34;65.33
69909;BME280;57190;47.918;8.112;2023-02-17T02:12:28;91683.31;;;6.19;66.48
69909;BME280;57190;47.918;8.112;2023-02-17T02:14:57;91674.91;;;6.22;67.41
69909;BME280;57190;47.918;8.112;2023-02-17T02:17:56;91673.13;;;6.16;67.82
69909;BME280;57190;47.918;8.112;2023-02-17T02:33:50;91659.59;;;6.05;68.98
69909;BME280;57190;47.918;8.112;2023-02-17T02:37:00;91660.63;;;6.04;69.22
69909;BME280;57190;47.918;8.112;2023-02-17T02:39:19;91652.22;;;6.07;69.42
69909;BME280;57190;47.918;8.112;2023-02-17T02:41:54;91643.03;;;6.10;69.17
69909;BME280;57190;47.918;8.112;2023-02-17T02:44:22;91650.91;;;6.17;68.49
69909;BME280;57190;47.918;8.112;2023-02-17T02:46:58;91649.00;;;6.24;68.17
69909;BME280;57190;47.918;8.112;2023-02-17T02:49:24;91651.22;;;6.27;68.09
69909;BME280;57190;47.918;8.112;2023-02-17T02:51:54;91655.25;;;6.29;67.38
69909;BME280;57190;47.918;8.112;2023-02-17T02:55:11;91644.97;;;6.21;68.07
69909;BME280;57190;47.918;8.112;2023-02-17T02:57:41;91651.66;;;6.24;67.97
69909;BME280;57190;47.918;8.112;2023-02-17T03:00:38;91643.78;;;6.17;68.70
69909;BME280;57190;47.918;8.112;2023-02-17T03:05:56;91645.97;;;6.20;67.87
69909;BME280;57190;47.918;8.112;2023-02-17T03:08:43;91645.31;;;6.25;67.47
69909;BME280;57190;47.918;8.112;2023-02-17T03:11:11;91639.66;;;6.21;67.88
69909;BME280;57190;47.918;8.112;2023-02-17T03:13:38;91647.00;;;6.19;68.00
69909;BME280;57190;47.918;8.112;2023-02-17T03:16:06;91648.28;;;6.17;68.16
69909;BME280;57190;47.918;8.112;2023-02-17T03:18:33;91642.44;;;6.26;68.41
69909;BME280;57190;47.918;8.112;2023-02-17T03:21:05;91643.41;;;6.32;68.14
69909;BME280;57190;47.918;8.112;2023-02-17T03:23:33;91643.41;;;6.32;67.58
69909;BME280;57190;47.918;8.112;2023-02-17T03:25:59;91641.78;;;6.31;67.96
69909;BME280;57190;47.918;8.112;2023-02-17T03:28:24;91639.38;;;6.29;67.91
69909;BME280;57190;47.918;8.112;2023-02-17T03:30:50;91637.66;;;6.17;68.08
69909;BME280;57190;47.918;8.112;2023-02-17T03:33:15;91640.19;;;6.11;68.19
69909;BME280;57190;47.918;8.112;2023-02-17T03:35:41;91635.63;;;6.19;68.99
69909;BME280;57190;47.918;8.112;2023-02-17T03:38:06;91636.22;;;6.21;69.50
69909;BME280;57190;47.918;8.112;2023-02-17T03:40:32;91631.06;;;6.26;68.48
69909;BME280;57190;47.918;8.112;2023-02-17T03:42:57;91637.38;;;6.25;69.66
69909;BME280;57190;47.918;8.112;2023-02-17T03:45:23;91635.31;;;6.27;69.66
69909;BME280;57190;47.918;8.112;2023-02-17T03:47:49;91622.66;;;6.29;68.77
69909;BME280;57190;47.918;8.112;2023-02-17T03:50:15;91631.41;;;6.29;68.40
69909;BME280;57190;47.918;8.112;2023-02-17T03:52:40;91634.44;;;6.33;68.67
69909;BME280;57190;47.918;8.112;2023-02-17T03:55:06;91640.09;;;6.37;67.69
69909;BME280;57190;47.918;8.112;2023-02-17T03:57:31;91640.09;;;6.37;67.63
69909;BME280;57190;47.918;8.112;2023-02-17T03:59:59;91635.44;;;6.32;67.88
69909;BME280;57190;47.918;8.112;2023-02-17T04:02:24;91633.63;;;6.33;67.56
69909;BME280;57190;47.918;8.112;2023-02-17T04:04:50;91635.75;;;6.24;67.38
69909;BME280;57190;47.918;8.112;2023-02-17T04:07:15;91629.66;;;6.23;67.26
69909;BME280;57190;47.918;8.112;2023-02-17T04:09:41;91636.56;;;6.24;66.62
69909;BME280;57190;47.918;8.112;2023-02-17T04:13:00;91632.06;;;6.25;66.25
69909;BME280;57190;47.918;8.112;2023-02-17T04:15:25;91641.00;;;6.31;64.56
69909;BME280;57190;47.918;8.112;2023-02-17T04:17:51;91633.47;;;6.27;63.68
69909;BME280;57190;47.918;8.112;2023-02-17T04:20:16;91633.09;;;6.24;63.20
69909;BME280;57190;47.918;8.112;2023-02-17T04:22:42;91635.75;;;6.24;61.46
69909;BME280;57190;47.918;8.112;2023-02-17T04:25:07;91632.00;;;6.32;60.72
69909;BME280;57190;47.918;8.112;2023-02-17T04:27:33;91637.44;;;6.37;60.04
69909;BME280;57190;47.918;8.112;2023-02-17T04:29:58;91625.38;;;6.41;60.27
69909;BME280;57190;47.918;8.112;2023-02-17T04:32:24;91611.31;;;6.40;60.54
69909;BME280;57190;47.918;8.112;2023-02-17T04:34:49;91624.91;;;6.44;60.31
69909;BME280;57190;47.918;8.112;2023-02-17T04:37:15;91631.84;;;6.45;59.30
69909;BME280;57190;47.918;8.112;2023-02-17T04:39:40;91627.56;;;6.44;59.73
69909;BME280;57190;47.918;8.112;2023-02-17T04:42:05;91620.88;;;6.41;60.66
69909;BME280;57190;47.918;8.112;2023-02-17T04:44:31;91630.00;;;6.45;60.79
69909;BME280;57190;47.918;8.112;2023-02-17T04:46:56;91626.41;;;6.40;61.63
69909;BME280;57190;47.918;8.112;2023-02-17T04:49:22;91631.13;;;6.38;62.04
69909;BME280;57190;47.918;8.112;2023-02-17T04:51:47;91635.16;;;6.40;61.66
69909;BME280;57190;47.918;8.112;2023-02-17T04:54:13;91626.03;;;6.36;62.78
69909;BME280;57190;47.918;8.112;2023-02-17T04:56:38;91628.09;;;6.34;63.21
69909;BME280;57190;47.918;8.112;2023-02-17T04:59:04;91628.34;;;6.33;63.06
69909;BME280;57190;47.918;8.112;2023-02-17T05:01:29;91631.19;;;6.31;64.33
69909;BME280;57190;47.918;8.112;2023-02-17T05:03:55;91635.53;;;6.25;64.16
69909;BME280;57190;47.918;8.112;2023-02-17T05:06:20;91627.97;;;6.29;64.61
69909;BME280;57190;47.918;8.112;2023-02-17T05:08:46;91634.97;;;6.23;65.15
69909;BME280;57190;47.918;8.112;2023-02-17T05:11:13;91641.66;;;6.26;64.99
69909;BME280;57190;47.918;8.112;2023-02-17T05:13:38;91638.78;;;6.27;65.24
69909;BME280;57190;47.918;8.112;2023-02-17T05:16:04;91643.34;;;6.20;65.98
69909;BME280;57190;47.918;8.112;2023-02-17T05:18:29;91644.72;;;6.23;65.55
69909;BME280;57190;47.918;8.112;2023-02-17T05:20:55;91636.72;;;6.29;65.27
69909;BME280;57190;47.918;8.112;2023-02-17T05:23:20;91632.75;;;6.20;65.80
69909;BME280;57190;47.918;8.112;2023-02-17T05:25:46;91635.16;;;6.22;65.31
69909;BME280;57190;47.918;8.112;2023-02-17T05:28:11;91635.75;;;6.24;65.76
69909;BME280;57190;47.918;8.112;2023-02-17T05:30:37;91639.59;;;6.28;65.08
69909;BME280;57190;47.918;8.112;2023-02-17T05:33:02;91628.34;;;6.33;65.65
69909;BME280;57190;47.918;8.112;2023-02-17T05:35:28;91637.50;;;6.30;64.46
69909;BME280;57190;47.918;8.112;2023-02-17T05:37:53;91642.25;;;6.28;64.82
69909;BME280;57190;47.918;8.112;2023-02-17T05:40:19;91634.50;;;6.26;65.35
69909;BME280;57190;47.918;8.112;2023-02-17T05:42:44;91629.78;;;6.28;64.99
69909;BME280;57190;47.918;8.112;2023-02-17T05:45:10;91634.06;;;6.29;65.04
69909;BME280;57190;47.918;8.112;2023-02-17T05:47:35;91634.06;;;6.29;66.11
69909;BME280;57190;47.918;8.112;2023-02-17T05:50:01;91627.06;;;6.35;65.32
69909;BME280;57190;47.918;8.112;2023-02-17T05:52:27;91638.28;;;6.37;65.42
69909;BME280;57190;47.918;8.112;2023-02-17T05:55:02;91634.94;;;6.42;65.23
69909;BME280;57190;47.918;8.112;2023-02-17T05:57:29;91636.78;;;6.41;65.31
69909;BME280;57190;47.918;8.112;2023-02-17T05:59:55;91640.25;;;6.42;64.56
69909;BME280;57190;47.918;8.112;2023-02-17T06:02:20;91647.59;;;6.40;65.68
69909;BME280;57190;47.918;8.112;2023-02-17T06:04:46;91649.00;;;6.42;65.73
69909;BME280;57190;47.918;8.112;2023-02-17T06:07:11;91649.00;;;6.42;65.73
69909;BME280;57190;47.918;8.112;2023-02-17T06:09:37;91648.78;;;6.44;65.56
69909;BME280;57190;47.918;8.112;2023-02-17T06:12:02;91651.41;;;6.44;65.98
69909;BME280;57190;47.918;8.112;2023-02-17T06:14:28;91650.97;;;6.47;66.28
69909;BME280;57190;47.918;8.112;2023-02-17T06:16:53;91656.94;;;6.42;66.55
69909;BME280;57190;47.918;8.112;2023-02-17T06:19:21;91653.69;;;6.40;66.50
69909;BME280;57190;47.918;8.112;2023-02-17T06:21:47;91659.59;;;6.42;66.50
69909;BME280;57190;47.918;8.112;2023-02-17T06:24:13;91655.91;;;6.43;67.09
69909;BME280;57190;47.918;8.112;2023-02-17T06:26:38;91650.97;;;6.47;66.26
69909;BME280;57190;47.918;8.112;2023-02-17T06:29:05;91656.41;;;6.52;66.32
69909;BME280;57190;47.918;8.112;2023-02-17T06:31:31;91649.72;;;6.50;66.54
69909;BME280;57190;47.918;8.112;2023-02-17T06:33:56;91657.44;;;6.51;65.82
69909;BME280;57190;47.918;8.112;2023-02-17T06:36:22;91648.34;;;6.47;66.74
69909;BME280;57190;47.918;8.112;2023-02-17T06:38:47;91654.91;;;6.44;66.96
69909;BME280;57190;47.918;8.112;2023-02-17T06:41:12;91666.28;;;6.45;66.92
69909;BME280;57190;47.918;8.112;2023-02-17T06:43:38;91668.03;;;6.51;67.40
69909;BME280;57190;47.918;8.112;2023-02-17T06:46:03;91665.75;;;6.55;68.00
69909;BME280;57190;47.918;8.112;2023-02-17T06:48:29;91668.03;;;6.51;67.85
69909;BME280;57190;47.918;8.112;2023-02-17T06:50:58;91671.75;;;6.50;69.00
69909;BME280;57190;47.918;8.112;2023-02-17T06:53:23;91677.19;;;6.55;68.38
69909;BME280;57190;47.918;8.112;2023-02-17T06:55:49;91672.47;;;6.57;68.38
69909;BME280;57190;47.918;8.112;2023-02-17T06:58:14;91664.06;;;6.60;69.70
69909;BME280;57190;47.918;8.112;2023-02-17T07:00:40;91666.03;;;6.65;69.45
69909;BME280;57190;47.918;8.112;2023-02-17T07:03:05;91672.59;;;6.63;70.02
69909;BME280;57190;47.918;8.112;2023-02-17T07:05:34;91670.09;;;6.68;69.49
69909;BME280;57190;47.918;8.112;2023-02-17T07:08:00;91672.53;;;6.69;69.61
69909;BME280;57190;47.918;8.112;2023-02-17T07:10:26;91680.63;;;6.74;69.84
69909;BME280;57190;47.918;8.112;2023-02-17T07:12:51;91681.22;;;6.76;69.60
69909;BME280;57190;47.918;8.112;2023-02-17T07:15:17;91679.94;;;6.79;69.50
69909;BME280;57190;47.918;8.112;2023-02-17T07:17:43;91687.31;;;6.77;70.51
69909;BME280;57190;47.918;8.112;2023-02-17T07:20:09;91691.00;;;6.76;70.26
69909;BME280;57190;47.918;8.112;2023-02-17T07:22:34;91687.66;;;6.81;70.60
69909;BME280;57190;47.918;8.112;2023-02-17T07:25:00;91688.50;;;6.81;69.97
69909;BME280;57190;47.918;8.112;2023-02-17T07:27:26;91692.97;;;6.81;69.90
69909;BME280;57190;47.918;8.112;2023-02-17T07:29:51;91698.22;;;6.69;72.28
69909;BME280;57190;47.918;8.112;2023-02-17T07:32:17;91700.31;;;6.67;73.31
69909;BME280;57190;47.918;8.112;2023-02-17T07:34:42;91691.09;;;6.69;73.67
69909;BME280;57190;47.918;8.112;2023-02-17T07:37:08;91694.34;;;6.71;75.00
69909;BME280;57190;47.918;8.112;2023-02-17T07:39:34;91696.16;;;6.71;75.13
69909;BME280;57190;47.918;8.112;2023-02-17T07:41:59;91696.59;;;6.68;75.95
69909;BME280;57190;47.918;8.112;2023-02-17T07:44:29;91700.75;;;6.64;75.55
69909;BME280;57190;47.918;8.112;2023-02-17T07:46:55;91702.78;;;6.61;76.10
69909;BME280;57190;47.918;8.112;2023-02-17T07:49:21;91708.09;;;6.61;77.15
69909;BME280;57190;47.918;8.112;2023-02-17T07:51:48;91709.38;;;6.59;77.98
69909;BME280;57190;47.918;8.112;2023-02-17T07:54:14;91719.53;;;6.62;77.56
69909;BME280;57190;47.918;8.112;2023-02-17T07:56:41;91712.81;;;6.59;77.71
69909;BME280;57190;47.918;8.112;2023-02-17T07:59:08;91723.88;;;6.56;77.98
69909;BME280;57190;47.918;8.112;2023-02-17T08:01:34;91731.59;;;6.58;78.82
69909;BME280;57190;47.918;8.112;2023-02-17T08:04:00;91730.81;;;6.57;77.99
69909;BME280;57190;47.918;8.112;2023-02-17T08:06:26;91721.34;;;6.61;78.08
69909;BME280;57190;47.918;8.112;2023-02-17T08:08:52;91719.06;;;6.65;77.76
69909;BME280;57190;47.918;8.112;2023-02-17T08:11:36;91731.91;;;6.68;78.09
69909;BME280;57190;47.918;8.112;2023-02-17T08:14:22;91724.91;;;6.74;77.52
69909;BME280;57190;47.918;8.112;2023-02-17T08:16:48;91726.81;;;6.67;78.39
69909;BME280;57190;47.918;8.112;2023-02-17T08:19:14;91727.09;;;6.77;77.57
69909;BME280;57190;47.918;8.112;2023-02-17T08:21:39;91734.59;;;6.80;78.01
69909;BME280;57190;47.918;8.112;2023-02-17T08:24:05;91723.94;;;6.87;77.97
69909;BME280;57190;47.918;8.112;2023-02-17T08:26:30;91721.03;;;6.88;77.32
69909;BME280;57190;47.918;8.112;2023-02-17T08:28:56;91727.16;;;6.89;78.28
69909;BME280;57190;47.918;8.112;2023-02-17T08:31:30;91739.66;;;7.00;77.58
69909;BME280;57190;47.918;8.112;2023-02-17T08:33:56;91738.41;;;7.03;77.74
69909;BME280;57190;47.918;8.112;2023-02-17T08:36:23;91736.94;;;7.07;77.02
69909;BME280;57190;47.918;8.112;2023-02-17T08:38:50;91739.78;;;7.05;76.81
69909;BME280;57190;47.918;8.112;2023-02-17T08:41:20;91752.63;;;7.08;77.13
69909;BME280;57190;47.918;8.112;2023-02-17T08:43:46;91739.78;;;7.05;77.30
69909;BME280;57190;47.918;8.112;2023-02-17T08:46:12;91746.53;;;7.08;77.15
69909;BME280;57190;47.918;8.112;2023-02-17T08:48:38;91742.97;;;7.14;77.17
69909;BME280;57190;47.918;8.112;2023-02-17T08:51:04;91757.38;;;7.18;77.60
69909;BME280;57190;47.918;8.112;2023-02-17T08:53:30;91756.50;;;7.24;76.79
69909;BME280;57190;47.918;8.112;2023-02-17T08:55:56;91761.00;;;7.24;76.72
69909;BME280;57190;47.918;8.112;2023-02-17T08:58:21;91755.00;;;7.29;76.96
69909;BME280;57190;47.918;8.112;2023-02-17T09:00:47;91765.78;;;7.34;77.06
69909;BME280;57190;47.918;8.112;2023-02-17T09:03:13;91769.00;;;7.36;76.61
69909;BME280;57190;47.918;8.112;2023-02-17T09:05:38;91758.63;;;7.34;77.40
69909;BME280;57190;47.918;8.112;2023-02-17T09:08:04;91776.03;;;7.30;77.07
69909;BME280;57190;47.918;8.112;2023-02-17T09:10:29;91775.09;;;7.24;77.09
69909;BME280;57190;47.918;8.112;2023-02-17T09:12:55;91786.50;;;7.25;76.83
69909;BME280;57190;47.918;8.112;2023-02-17T09:15:20;91784.88;;;7.24;76.87
69909;BME280;57190;47.918;8.112;2023-02-17T09:17:46;91790.41;;;7.22;77.08
69909;BME280;57190;47.918;8.112;2023-02-17T09:20:11;91785.53;;;7.19;77.33
69909;BME280;57190;47.918;8.112;2023-02-17T09:22:37;91782.22;;;7.24;77.33
69909;BME280;57190;47.918;8.112;2023-02-17T09:25:03;91787.41;;;7.19;77.21
69909;BME280;57190;47.918;8.112;2023-02-17T09:27:29;91784.06;;;7.23;77.26
69909;BME280;57190;47.918;8.112;2023-02-17T09:29:55;91789.75;;;7.27;76.99
69909;BME280;57190;47.918;8.112;2023-02-17T09:32:20;91795.66;;;7.29;76.95
69909;BME280;57190;47.918;8.112;2023-02-17T09:34:46;91787.22;;;7.32;77.21
69909;BME280;57190;47.918;8.112;2023-02-17T09:37:15;91782.28;;;7.36;76.76
69909;BME280;57190;47.918;8.112;2023-02-17T09:39:45;91778.06;;;7.47;76.49
69909;BME280;57190;47.918;8.112;2023-02-17T09:42:19;91785.78;;;7.48;76.39
69909;BME280;57190;47.918;8.112;2023-02-17T09:44:50;91781.53;;;7.47;76.63
69909;BME280;57190;47.918;8.112;2023-02-17T09:47:23;91779.47;;;7.49;76.72
69909;BME280;57190;47.918;8.112;2023-02-17T09:49:56;91788.38;;;7.55;75.93
69909;BME280;57190;47.918;8.112;2023-02-17T09:55:12;91786.06;;;7.59;75.96
69909;BME280;57190;47.918;8.112;2023-02-17T09:57:58;91789.03;;;7.50;76.25
69909;BME280;57190;47.918;8.112;2023-02-17T10:00:32;91779.22;;;7.51;76.62
69909;BME280;57190;47.918;8.112;2023-02-17T10:03:18;91785.91;;;7.53;76.32
69909;BME280;57190;47.918;8.112;2023-02-17T10:11:30;91786.78;;;7.66;76.76
69909;BME280;57190;47.918;8.112;2023-02-17T10:14:02;91782.53;;;7.77;76.83
69909;BME280;57190;47.918;8.112;2023-02-17T10:16:44;91775.88;;;7.86;76.54
69909;BME280;57190;47.918;8.112;2023-02-17T10:19:31;91777.41;;;8.06;75.99
69909;BME280;57190;47.918;8.112;2023-02-17T10:22:17;91780.53;;;8.14;75.63
69909;BME280;57190;47.918;8.112;2023-02-17T10:24:42;91775.66;;;8.11;75.85
69909;BME280;57190;47.918;8.112;2023-02-17T10:32:22;91784.13;;;8.20;76.42
69909;BME280;57190;47.918;8.112;2023-02-17T10:37:49;91784.56;;;8.29;75.88
69909;BME280;57190;47.918;8.112;2023-02-17T10:40:24;91780.88;;;8.30;76.17
69909;BME280;57190;47.918;8.112;2023-02-17T10:42:54;91780.53;;;8.38;76.24
69909;BME280;57190;47.918;8.112;2023-02-17T10:45:40;91774.47;;;8.49;76.03
69909;BME280;57190;47.918;8.112;2023-02-17T10:48:27;91788.19;;;8.58;75.65
69909;BME280;57190;47.918;8.112;2023-02-17T10:50:59;91788.69;;;8.55;75.78
69909;BME280;57190;47.918;8.112;2023-02-17T10:53:30;91787.97;;;8.48;76.57
69909;BME280;57190;47.918;8.112;2023-02-17T10:58:53;91787.81;;;8.43;74.97
69909;BME280;57190;47.918;8.112;2023-02-17T11:01:20;91790.94;;;8.40;74.73
69909;BME280;57190;47.918;8.112;2023-02-17T11:04:08;91787.81;;;8.43;75.06
69909;BME280;57190;47.918;8.112;2023-02-17T11:06:47;91782.25;;;8.44;74.85
69909;BME280;57190;47.918;8.112;2023-02-17T11:09:22;91783.22;;;8.50;74.78
69909;BME280;57190;47.918;8.112;2023-02-17T11:14:31;91790.41;;;8.49;74.54
69909;BME280;57190;47.918;8.112;2023-02-17T11:17:10;91789.59;;;8.49;74.57
69909;BME280;57190;47.918;8.112;2023-02-17T11:19:37;91791.00;;;8.52;74.10
69909;BME280;57190;47.918;8.112;2023-02-17T11:22:29;91796.41;;;8.57;74.19
69909;BME280;57190;47.918;8.112;2023-02-17T11:24:59;91786.38;;;8.47;73.97
69909;BME280;57190;47.918;8.112;2023-02-17T11:27:25;91788.66;;;8.43;74.58
69909;BME280;57190;47.918;8.112;2023-02-17T11:29:51;91785.88;;;8.50;74.80
69909;BME280;57190;47.918;8.112;2023-02-17T11:32:17;91789.94;;;8.53;74.31
69909;BME280;57190;47.918;8.112;2023-02-17T11:34:56;91788.78;;;8.60;74.60
69909;BME280;57190;47.918;8.112;2023-02-17T11:37:23;91791.19;;;8.62;74.31
69909;BME280;57190;47.918;8.112;2023-02-17T11:39:53;91791.69;;;8.59;74.47
69909;BME280;57190;47.918;8.112;2023-02-17T11:42:27;91786.38;;;8.59;74.49
69909;BME280;57190;47.918;8.112;2023-02-17T11:44:56;91783.38;;;8.55;74.97
69909;BME280;57190;47.918;8.112;2023-02-17T11:47:44;91788.16;;;8.46;74.79
69909;BME280;57190;47.918;8.112;2023-02-17T11:50:30;91783.47;;;8.48;74.89
69909;BME280;57190;47.918;8.112;2023-02-17T12:01:02;91782.53;;;8.55;74.22
69909;BME280;57190;47.918;8.112;2023-02-17T12:03:46;91779.41;;;8.46;74.46
69909;BME280;57190;47.918;8.112;2023-02-17T12:06:43;91778.91;;;8.37;75.19
69909;BME280;57190;47.918;8.112;2023-02-17T12:17:41;91786.44;;;8.28;75.32
69909;BME280;57190;47.918;8.112;2023-02-17T12:26:31;91787.81;;;8.07;76.49
69909;BME280;57190;47.918;8.112;2023-02-17T12:34:00;91788.94;;;8.11;76.30
69909;BME280;57190;47.918;8.112;2023-02-17T12:36:31;91784.09;;;8.08;76.60
69909;BME280;57190;47.918;8.112;2023-02-17T12:39:02;91789.78;;;8.12;76.19
69909;BME280;57190;47.918;8.112;2023-02-17T12:41:38;91782.25;;;8.09;76.35
69909;BME280;57190;47.918;8.112;2023-02-17T12:44:24;91781.66;;;8.07;76.18
69909;BME280;57190;47.918;8.112;2023-02-17T12:46:55;91782.94;;;8.04;76.48
69909;BME280;57190;47.918;8.112;2023-02-17T12:49:52;91784.28;;;7.95;76.74
69909;BME280;57190;47.918;8.112;2023-02-17T12:52:40;91784.66;;;7.98;76.76
69909;BME280;57190;47.918;8.112;2023-02-17T12:57:52;91789.25;;;7.91;77.24
69909;BME280;57190;47.918;8.112;2023-02-17T13:00:34;91789.25;;;7.91;77.11
69909;BME280;57190;47.918;8.112;2023-02-17T13:03:02;91787.75;;;7.83;77.37
69909;BME280;57190;47.918;8.112;2023-02-17T13:08:31;91776.66;;;7.86;77.40
69909;BME280;57190;47.918;8.112;2023-02-17T13:11:11;91782.66;;;7.94;77.36
69909;BME280;57190;47.918;8.112;2023-02-17T13:13:37;91780.84;;;7.94;77.35
69909;BME280;57190;47.918;8.112;2023-02-17T13:16:09;91777.25;;;8.00;77.47
69909;BME280;57190;47.918;8.112;2023-02-17T13:18:37;91786.06;;;8.01;77.13
69909;BME280;57190;47.918;8.112;2023-02-17T13:26:43;91778.97;;;7.95;77.62
69909;BME280;57190;47.918;8.112;2023-02-17T13:31:45;91775.53;;;7.94;77.61
69909;BME280;57190;47.918;8.112;2023-02-17T13:36:50;91777.69;;;7.85;78.20
69909;BME280;57190;47.918;8.112;2023-02-17T13:41:50;91776.44;;;7.76;78.85
69909;BME280;57190;47.918;8.112;2023-02-17T13:44:32;91770.28;;;7.76;79.08
69909;BME280;57190;47.918;8.112;2023-02-17T13:47:13;91772.34;;;7.74;78.93
69909;BME280;57190;47.918;8.112;2023-02-17T13:49:40;91778.94;;;7.71;79.43
69909;BME280;57190;47.918;8.112;2023-02-17T13:52:21;91776.28;;;7.71;78.95
69909;BME280;57190;47.918;8.112;2023-02-17T13:54:58;91774.81;;;7.75;78.96
69909;BME280;57190;47.918;8.112;2023-02-17T13:57:35;91777.47;;;7.75;79.08
69909;BME280;57190;47.918;8.112;2023-02-17T14:00:28;91775.00;;;7.74;79.21
69909;BME280;57190;47.918;8.112;2023-02-17T14:03:04;91771.31;;;7.75;79.34
69909;BME280;57190;47.918;8.112;2023-02-17T14:05:39;91769.13;;;7.71;79.37
69909;BME280;57190;47.918;8.112;2023-02-17T14:10:42;91764.50;;;7.67;79.69
69909;BME280;57190;47.918;8.112;2023-02-17T14:13:09;91765.31;;;7.67;79.73
69909;BME280;57190;47.918;8.112;2023-02-17T14:15:36;91762.88;;;7.66;79.57
69909;BME280;57190;47.918;8.112;2023-02-17T14:18:15;91768.19;;;7.66;79.86
69909;BME280;57190;47.918;8.112;2023-02-17T14:20:41;91763.69;;;7.66;80.21
69909;BME280;57190;47.918;8.112;2023-02-17T14:23:10;91767.38;;;7.65;79.77
69909;BME280;57190;47.918;8.112;2023-02-17T14:25:41;91767.16;;;7.67;80.23
69909;BME280;57190;47.918;8.112;2023-02-17T14:28:25;91772.00;;;7.70;79.98
69909;BME280;57190;47.918;8.112;2023-02-17T14:30:51;91768.66;;;7.75;79.75
69909;BME280;57190;47.918;8.112;2023-02-17T14:33:23;91774.56;;;7.77;79.79
69909;BME280;57190;47.918;8.112;2023-02-17T14:35:56;91775.38;;;7.77;79.61
69909;BME280;57190;47.918;8.112;2023-02-17T14:38:31;91784.16;;;7.78;79.79
69909;BME280;57190;47.918;8.112;2023-02-17T14:40:59;91779.19;;;7.81;79.55
69909;BME280;57190;47.918;8.112;2023-02-17T14:43:25;91782.56;;;7.89;79.39
69909;BME280;57190;47.918;8.112;2023-02-17T14:45:51;91777.34;;;7.94;79.24
69909;BME280;57190;47.918;8.112;2023-02-17T14:48:17;91780.97;;;7.99;78.86
69909;BME280;57190;47.918;8.112;2023-02-17T14:50:43;91784.31;;;8.07;78.69
69909;BME280;57190;47.918;8.112;2023-02-17T14:53:32;91787.91;;;8.12;78.22
69909;BME280;57190;47.918;8.112;2023-02-17T14:58:48;91782.06;;;8.34;78.36